• Join FlightAware (Why Join?)
  • Login
  • US Flag 
03:23PM EDT


 

Airport Tracker/Info


-or-


 

Live Flight TrackerFlight Track Log ✈ ASQ4633 ✈ 09-Jun-2013 ✈ KSLC - KDEN

Flight Track Log - Related Links

Times and Time Zones

All times are in EDT time to prevent confusion due to time zone crossing. See the ASQ4633 flight status page for this flight to view local times or setup timezone preferences in your user account.

Time Position Orientation Groundspeed Altitude Reporting Facility
EDT Latitude Longitude Course Direction KTS MPH feet Rate Location/Type
08:03PM 40.8172 -111.9786 97° East 185 213 5,000  Level Salt Lake Center
08:04PM 40.8419 -111.9844 350° North 189 217 5,800 1,380 Climbing Salt Lake Center
08:04PM 40.8836 -111.9872 357° North 210 242 6,900 1,860 Climbing Salt Lake Center
08:05PM 40.9622 -111.9981 354° North 233 268 9,300 2,040 Climbing Salt Lake Center
08:06PM 41.0164 -111.9497 34° Northeast 264 304 11,200 1,560 Climbing Salt Lake Center
08:07PM 41.0022 -111.8528 101° East 280 322 12,600 1,260 Climbing Salt Lake Center
08:08PM 40.9817 -111.7422 104° East 320 368 13,900 1,200 Climbing Salt Lake Center
08:09PM 40.6437 -110.5357 97° East  Level Estimated
08:09PM 40.9669 -111.6175 99° East 347 399 15,100  Level Salt Lake Center
08:11PM 40.9531 -111.4533 96° East 376 433 16,400 1,080 Climbing Salt Lake Center
08:12PM 40.9397 -111.3094 97° East 392 451 17,400 960 Climbing Salt Lake Center
08:13PM 40.9269 -111.1600 96° East 406 467 18,400 1,020 Climbing Salt Lake Center
08:14PM 40.9125 -111.0061 97° East 420 483 19,500 960 Climbing Salt Lake Center
08:15PM 40.8986 -110.8500 97° East 427 491 20,500 960 Climbing Salt Lake Center
08:16PM 40.8836 -110.6911 97° East 436 502 21,500 1,020 Climbing Salt Lake Center
08:17PM 40.8672 -110.5025 96° East 439 505 22,700 960 Climbing Salt Lake Center
08:18PM 40.8525 -110.3492 97° East 440 506 23,600 900 Climbing Salt Lake Center
08:19PM 40.8367 -110.1958 98° East 443 510 24,600 1,020 Climbing Salt Lake Center
08:20PM 40.8178 -110.0144 98° East 445 512 25,700 960 Climbing Salt Lake Center
08:21PM 40.8033 -109.8569 97° East 449 517 26,700 1,020 Climbing Salt Lake Center
08:22PM 40.7856 -109.6733 97° East 452 520 27,800 1,020 Climbing Salt Lake Center
08:23PM 40.7692 -109.5167 98° East 450 518 28,800 960 Climbing Salt Lake Center
08:24PM 40.7503 -109.3322 98° East 454 522 29,900 1,020 Climbing Salt Lake Center
08:25PM 40.7336 -109.1806 98° East 453 521 31,000 1,140 Climbing Salt Lake Center
08:26PM 40.7194 -109.0408 98° East 456 525 32,000 1,080 Climbing Denver Center
08:27PM 40.7028 -108.8825 98° East 454 522 33,000 780 Climbing Denver Center
08:27PM 40.6975 -108.8400 99° East 456 525 33,100  Climbing Salt Lake Center
08:28PM 40.6764 -108.6464 98° East 478 550 33,000  Descending Salt Lake Center
08:29PM 40.6628 -108.5181 98° East 488 562 33,100  Climbing Denver Center
08:30PM 40.6431 -108.3458 99° East 495 570 33,000 -60 Descending Denver Center
08:31PM 40.6200 -108.1425 98° East 500 575 33,000  Level Denver Center
08:32PM 40.6003 -107.9708 99° East 496 571 33,000  Level Denver Center
08:33PM 40.5761 -107.7736 99° East 491 565 33,000  Level Denver Center
08:34PM 40.5569 -107.6031 98° East 490 564 33,000  Level Denver Center
08:35PM 40.5358 -107.4314 99° East 495 570 33,100  Climbing Denver Center
08:36PM 40.5172 -107.2292 97° East 499 574 33,000 -60 Descending Denver Center
08:37PM 40.5053 -107.0653 95° East 502 578 33,000  Level Denver Center
08:38PM 40.4894 -106.8861 97° East 497 572 33,000  Level Denver Center
08:39PM 40.4706 -106.6728 97° East 490 564 33,100  Climbing Denver Center
08:40PM 40.4547 -106.4878 96° East 488 562 33,000 -240 Descending Denver Center
08:41PM 40.4400 -106.3183 96° East 488 562 32,700 -1,380 Descending Denver Center
08:42PM 40.4242 -106.1428 97° East 488 562 30,200 -2,940 Descending Denver Center
08:43PM 40.4086 -105.9700 97° East 479 551 26,700 -3,240 Descending Denver Center
08:44PM 40.3925 -105.8006 97° East 471 542 23,600 -2,760 Descending Denver Center
08:45PM 40.3767 -105.6367 97° East 457 526 21,000 -2,760 Descending Denver Center
08:46PM 40.3586 -105.4583 98° East 440 506 18,000 -2,400 Descending Denver Center
08:47PM 40.3381 -105.3081 100° East 383 441 16,200 -1,980 Descending Denver Center
08:48PM 40.3225 -105.1850 99° East 347 399 14,000 -1,620 Descending Denver Center
08:49PM 40.2914 -105.0753 110° East 325 374 13,000 -540 Descending Denver Center
08:50PM 40.2558 -104.9567 111° Southeast 325 374 13,000 -180 Level Denver Center
08:51PM 40.2131 -104.8542 119° Southeast 325 374 12,700 -1,080 Descending Denver Center
08:52PM 40.1519 -104.7767 136° Southeast 313 360 10,800 -1,800 Descending Denver Center
08:53PM 40.0703 -104.7228 153° Southeast 306 352 9,100 -1,740 Descending Denver Center
08:54PM 40.0025 -104.6947 162° South 262 302 7,300 -1,380 Descending Denver Center
08:56PM 39.9472 -104.6958 181° South 198 228 6,300 -900 Descending Denver Center
08:57PM 39.9017 -104.6961 180° South 158 182 5,500 -780 Descending Denver Center